createdAt,value
2024-04-23T00:00:21.970Z,3.30
2024-04-23T00:03:11.692Z,3.20
2024-04-23T00:05:59.099Z,3.20
2024-04-23T00:08:51.601Z,3.20
2024-04-23T00:11:39.265Z,3.10
2024-04-23T00:14:29.532Z,3.10
2024-04-23T00:17:16.635Z,3.10
2024-04-23T00:20:06.680Z,3.00
2024-04-23T00:22:53.907Z,3.00
2024-04-23T00:25:46.515Z,3.00
2024-04-23T00:28:33.876Z,2.90
2024-04-23T00:31:23.797Z,2.90
2024-04-23T00:34:11.029Z,2.90
2024-04-23T00:37:02.750Z,2.90
2024-04-23T00:39:50.398Z,2.80
2024-04-23T00:42:43.101Z,2.90
2024-04-23T00:45:47.875Z,2.80
2024-04-23T00:48:38.579Z,2.70
2024-04-23T00:51:25.994Z,2.70
2024-04-23T00:54:17.129Z,2.70
2024-04-23T00:57:05.487Z,2.60
2024-04-23T00:59:58.166Z,2.60
2024-04-23T01:02:46.675Z,2.60
2024-04-23T01:05:36.769Z,2.60
2024-04-23T01:08:24.144Z,2.60
2024-04-23T01:11:14.034Z,2.60
2024-04-23T01:14:01.277Z,2.60
2024-04-23T01:16:54.672Z,2.60
2024-04-23T01:19:46.914Z,2.60
2024-04-23T01:22:44.438Z,2.60
2024-04-23T01:25:31.925Z,2.60
2024-04-23T01:28:24.654Z,2.50
2024-04-23T01:31:12.181Z,2.50
2024-04-23T01:34:03.125Z,2.50
2024-04-23T01:36:51.510Z,2.40
2024-04-23T01:39:42.696Z,2.40
2024-04-23T01:42:31.452Z,2.40
2024-04-23T01:45:24.440Z,2.40
2024-04-23T01:48:12.336Z,2.40
2024-04-23T01:51:02.023Z,2.30
2024-04-23T01:53:49.137Z,2.30
2024-04-23T01:56:39.023Z,2.30
2024-04-23T01:59:26.445Z,2.30
2024-04-23T02:02:20.668Z,2.30
2024-04-23T02:05:13.053Z,2.30
2024-04-23T02:08:01.369Z,2.30
2024-04-23T02:10:51.488Z,2.30
2024-04-23T02:13:41.388Z,2.30
2024-04-23T02:16:28.968Z,2.20
2024-04-23T02:19:21.391Z,2.20
2024-04-23T02:22:08.881Z,2.20
2024-04-23T02:24:58.657Z,2.20
2024-04-23T02:27:45.915Z,2.20
2024-04-23T02:30:35.978Z,2.10
2024-04-23T02:33:23.295Z,2.10
2024-04-23T02:36:16.157Z,2.10
2024-04-23T02:39:03.339Z,2.10
2024-04-23T02:41:54.066Z,2.10
2024-04-23T02:44:41.212Z,2.10
2024-04-23T02:47:31.104Z,2.10
2024-04-23T02:50:18.166Z,2.20
2024-04-23T02:53:10.844Z,2.10
2024-04-23T02:56:01.015Z,2.10
2024-04-23T02:58:48.271Z,2.20
2024-04-23T03:01:38.038Z,2.10
2024-04-23T03:04:25.303Z,2.10
2024-04-23T03:07:15.183Z,2.00
2024-04-23T03:10:05.469Z,2.00
2024-04-23T03:12:55.649Z,2.00
2024-04-23T03:15:43.203Z,2.00
2024-04-23T03:18:32.999Z,1.90
2024-04-23T03:21:20.337Z,1.90
2024-04-23T03:24:10.758Z,1.80
2024-04-23T03:27:00.697Z,1.80
2024-04-23T03:29:50.913Z,1.80
2024-04-23T03:32:38.611Z,1.80
2024-04-23T03:35:28.741Z,1.70
2024-04-23T03:38:18.796Z,1.70
2024-04-23T03:41:09.038Z,1.70
2024-04-23T03:44:01.979Z,1.70
2024-04-23T03:46:52.157Z,1.70
2024-04-23T03:49:42.418Z,1.70
2024-04-23T03:52:30.037Z,1.70
2024-04-23T03:55:19.876Z,1.70
2024-04-23T03:58:07.383Z,1.70
2024-04-23T04:00:59.982Z,1.70
2024-04-23T04:04:05.489Z,1.70
2024-04-23T04:06:55.316Z,1.70
2024-04-23T04:09:45.453Z,1.70
2024-04-23T04:12:35.441Z,1.80
2024-04-23T04:15:25.165Z,1.80
2024-04-23T04:18:15.709Z,1.80
2024-04-23T04:21:05.558Z,1.80
2024-04-23T04:23:55.880Z,1.80
2024-04-23T04:26:45.722Z,1.90
2024-04-23T04:29:33.039Z,1.80
2024-04-23T04:32:22.947Z,1.90
2024-04-23T04:35:13.312Z,2.00
2024-04-23T04:38:03.577Z,2.00
2024-04-23T04:40:51.788Z,2.20
2024-04-23T04:43:41.762Z,2.30
2024-04-23T04:46:29.080Z,2.40
2024-04-23T04:49:19.043Z,2.60
2024-04-23T04:52:09.058Z,2.70
2024-04-23T04:54:59.227Z,2.80
2024-04-23T04:57:46.525Z,3.00
2024-04-23T05:00:36.312Z,3.20
2024-04-23T05:03:23.707Z,3.40
2024-04-23T05:06:13.832Z,3.70
2024-04-23T05:09:04.324Z,4.10
2024-04-23T05:11:54.397Z,4.40
2024-04-23T05:14:42.091Z,4.90
2024-04-23T05:17:31.961Z,5.40
2024-04-23T05:20:19.346Z,5.90
2024-04-23T05:23:09.329Z,6.60
2024-04-23T05:25:59.437Z,7.30
2024-04-23T05:28:49.360Z,8.00
2024-04-23T05:32:03.590Z,8.80
2024-04-23T05:34:53.510Z,9.50
2024-04-23T05:37:43.567Z,10.30
2024-04-23T05:40:33.615Z,10.90
2024-04-23T05:43:26.469Z,11.50
2024-04-23T05:46:16.276Z,12.00
2024-04-23T05:50:02.308Z,12.40
2024-04-23T05:54:07.340Z,12.90
2024-04-23T05:57:16.572Z,13.40
2024-04-23T06:00:07.753Z,13.90
2024-04-23T06:03:17.641Z,14.40
2024-04-23T06:06:07.766Z,14.90
2024-04-23T06:08:57.865Z,15.50
2024-04-23T06:11:47.893Z,16.10
2024-04-23T06:14:35.458Z,16.70
2024-04-23T06:17:35.968Z,17.10
2024-04-23T06:20:29.101Z,17.50
2024-04-23T06:23:23.044Z,17.90
2024-04-23T06:26:10.393Z,18.10
2024-04-23T06:29:02.555Z,18.40
2024-04-23T06:31:50.572Z,18.70
2024-04-23T06:34:43.716Z,19.00
2024-04-23T06:37:33.863Z,19.30
2024-04-23T06:40:21.596Z,19.80
2024-04-23T06:43:14.213Z,20.10
2024-04-23T06:46:02.311Z,20.30
2024-04-23T06:48:52.033Z,20.60
2024-04-23T06:51:42.145Z,20.80
2024-04-23T06:54:32.378Z,20.80
2024-04-23T06:57:20.155Z,20.80
2024-04-23T07:00:12.663Z,20.70
2024-04-23T07:03:02.591Z,20.70
2024-04-23T07:05:54.984Z,20.70
2024-04-23T07:08:45.121Z,20.70
2024-04-23T07:11:35.396Z,20.60
2024-04-23T07:14:25.670Z,20.50
2024-04-23T07:17:13.136Z,20.50
2024-04-23T07:20:03.551Z,20.70
2024-04-23T07:22:53.492Z,20.90
2024-04-23T07:25:50.834Z,21.20
2024-04-23T07:28:40.896Z,21.60
2024-04-23T07:31:28.206Z,21.90
2024-04-23T07:34:17.978Z,22.40
2024-04-23T07:37:05.387Z,22.80
2024-04-23T07:39:55.156Z,23.20
2024-04-23T07:42:46.649Z,23.50
2024-04-23T07:45:37.250Z,23.70
2024-04-23T07:48:24.571Z,23.80
2024-04-23T07:51:14.466Z,23.90
2024-04-23T07:54:04.635Z,23.90
2024-04-23T07:56:51.816Z,23.90
2024-04-23T07:59:44.314Z,23.90
2024-04-23T08:02:31.976Z,23.90
2024-04-23T08:05:21.848Z,24.10
2024-04-23T08:08:09.765Z,24.20
2024-04-23T08:11:00.132Z,24.40
2024-04-23T08:13:50.209Z,24.40
2024-04-23T08:16:43.058Z,24.50
2024-04-23T08:19:30.380Z,24.60
2024-04-23T08:22:20.557Z,24.50
2024-04-23T08:25:14.466Z,24.50
2024-04-23T08:28:02.070Z,24.40
2024-04-23T08:30:51.853Z,24.30
2024-04-23T08:33:41.960Z,24.20
2024-04-23T08:36:33.583Z,24.20
2024-04-23T08:39:21.049Z,24.20
2024-04-23T08:42:13.768Z,24.20
2024-04-23T08:45:02.843Z,24.40
2024-04-23T08:47:53.246Z,24.60
2024-04-23T08:50:47.438Z,24.90
2024-04-23T08:53:35.700Z,25.20
2024-04-23T08:56:26.574Z,25.40
2024-04-23T08:59:16.144Z,25.60
2024-04-23T09:02:08.997Z,25.80
2024-04-23T09:04:57.199Z,26.10
2024-04-23T09:07:50.580Z,26.30
2024-04-23T09:10:37.887Z,26.40
2024-04-23T09:13:27.683Z,26.60
2024-04-23T09:16:15.094Z,26.60
2024-04-23T09:19:05.458Z,26.60
2024-04-23T09:21:52.662Z,26.70
2024-04-23T09:24:45.437Z,26.90
2024-04-23T09:27:34.230Z,27.00
2024-04-23T09:30:30.422Z,27.00
2024-04-23T09:33:28.235Z,27.10
2024-04-23T09:36:15.623Z,27.10
2024-04-23T09:39:06.416Z,27.00
2024-04-23T09:42:03.330Z,26.80
2024-04-23T09:44:52.037Z,26.70
2024-04-23T09:47:44.579Z,26.70
2024-04-23T09:50:31.880Z,27.00
2024-04-23T09:53:21.730Z,27.40
2024-04-23T09:56:15.545Z,27.80
2024-04-23T09:59:06.083Z,28.10
2024-04-23T10:01:57.702Z,28.20
2024-04-23T10:04:45.604Z,28.20
2024-04-23T10:07:42.784Z,28.20
2024-04-23T10:10:41.655Z,28.30
2024-04-23T10:13:37.617Z,28.70
2024-04-23T10:16:36.846Z,28.90
2024-04-23T10:19:27.891Z,29.00
2024-04-23T10:22:15.732Z,28.90
2024-04-23T10:25:06.339Z,28.60
2024-04-23T10:27:54.016Z,28.50
2024-04-23T10:30:45.682Z,28.30
2024-04-23T10:33:37.378Z,28.00
2024-04-23T10:36:29.023Z,27.60
2024-04-23T10:39:23.074Z,27.10
2024-04-23T10:42:13.246Z,26.70
2024-04-23T10:45:01.514Z,26.40
2024-04-23T10:47:56.998Z,26.20
2024-04-23T10:50:59.496Z,26.10
2024-04-23T10:53:50.090Z,26.00
2024-04-23T10:56:38.175Z,26.00
2024-04-23T10:59:30.289Z,26.00
2024-04-23T11:02:27.368Z,26.00
2024-04-23T11:05:22.669Z,26.10
2024-04-23T11:08:23.932Z,26.20
2024-04-23T11:11:14.216Z,26.40
2024-04-23T11:14:01.637Z,26.40
2024-04-23T11:16:51.549Z,26.30
2024-04-23T11:19:40.415Z,26.00
2024-04-23T11:22:38.250Z,25.40
2024-04-23T11:25:35.333Z,24.60
2024-04-23T11:28:26.023Z,23.60
2024-04-23T11:31:13.774Z,22.60
2024-04-23T11:34:04.863Z,21.70
2024-04-23T11:36:54.833Z,20.90
2024-04-23T11:39:42.525Z,20.10
2024-04-23T11:42:37.244Z,19.40
2024-04-23T11:45:24.736Z,18.90
2024-04-23T11:48:14.828Z,18.50
2024-04-23T11:51:02.458Z,18.10
2024-04-23T11:53:53.174Z,17.70
2024-04-23T11:56:40.532Z,17.30
2024-04-23T11:59:34.515Z,17.00
2024-04-23T12:02:23.151Z,16.60
2024-04-23T12:05:15.743Z,16.30
2024-04-23T12:08:04.312Z,16.00
2024-04-23T12:10:54.520Z,15.80
2024-04-23T12:13:48.174Z,15.70
2024-04-23T12:16:45.628Z,15.60
2024-04-23T12:19:37.875Z,15.60
2024-04-23T12:22:28.204Z,15.70
2024-04-23T12:25:16.863Z,15.80
2024-04-23T12:28:07.888Z,15.80
2024-04-23T12:30:55.147Z,15.80
2024-04-23T12:33:48.184Z,15.80
2024-04-23T12:36:36.697Z,15.80
2024-04-23T12:39:28.493Z,15.90
2024-04-23T12:42:15.734Z,15.90
2024-04-23T12:45:05.746Z,15.90
2024-04-23T12:47:57.847Z,15.80
2024-04-23T12:50:50.658Z,15.80
2024-04-23T12:53:38.514Z,15.70
2024-04-23T12:56:29.462Z,15.60
2024-04-23T12:59:16.954Z,15.60
2024-04-23T13:02:08.903Z,15.60
2024-04-23T13:04:56.726Z,15.70
2024-04-23T13:07:49.176Z,15.80
2024-04-23T13:10:39.029Z,15.80
2024-04-23T13:13:27.325Z,15.80
2024-04-23T13:16:17.495Z,15.80
2024-04-23T13:19:05.031Z,15.80
2024-04-23T13:21:55.093Z,15.80
2024-04-23T13:24:45.157Z,15.80
2024-04-23T13:30:37.951Z,15.70
2024-04-23T13:33:25.551Z,15.70
2024-04-23T13:36:16.661Z,15.70
2024-04-23T13:39:04.168Z,15.80
2024-04-23T13:41:56.891Z,15.80
2024-04-23T13:44:44.386Z,15.70
2024-04-23T13:47:39.570Z,15.60
2024-04-23T13:50:29.856Z,15.50
2024-04-23T13:53:17.157Z,15.40
2024-04-23T13:56:10.675Z,15.20
2024-04-23T13:59:01.019Z,15.20
2024-04-23T14:01:51.428Z,15.10
2024-04-23T14:04:45.096Z,15.00
2024-04-23T14:07:36.579Z,14.90
2024-04-23T14:10:24.064Z,14.90
2024-04-23T14:13:14.213Z,15.00
2024-04-23T14:16:11.124Z,15.00
2024-04-23T14:19:01.178Z,15.20
2024-04-23T14:21:49.929Z,15.40
2024-04-23T14:24:39.991Z,15.60
2024-04-23T14:27:27.297Z,15.80
2024-04-23T14:30:17.976Z,15.80
2024-04-23T14:33:08.002Z,16.00
2024-04-23T14:35:58.378Z,16.00
2024-04-23T14:38:47.699Z,15.90
2024-04-23T14:41:37.707Z,16.00
2024-04-23T14:44:25.344Z,15.90
2024-04-23T14:47:15.388Z,16.00
2024-04-23T14:50:08.507Z,16.00
2024-04-23T14:53:01.085Z,16.10
2024-04-23T14:56:02.653Z,16.10
2024-04-23T14:58:53.444Z,16.10
2024-04-23T15:01:43.440Z,16.00
2024-04-23T15:04:31.160Z,15.90
2024-04-23T15:07:31.914Z,15.90
2024-04-23T15:10:22.862Z,15.90
2024-04-23T15:13:10.679Z,15.80
2024-04-23T15:16:04.877Z,15.80
2024-04-23T15:18:53.339Z,15.90
2024-04-23T15:21:43.702Z,15.80
2024-04-23T15:24:38.959Z,15.80
2024-04-23T15:27:29.979Z,15.70
2024-04-23T15:30:17.732Z,15.60
2024-04-23T15:33:08.909Z,15.50
2024-04-23T15:36:00.672Z,15.40
2024-04-23T15:38:52.374Z,15.40
2024-04-23T15:41:42.288Z,15.30
2024-04-23T15:44:32.437Z,15.30
2024-04-23T15:47:19.746Z,15.30
2024-04-23T15:50:11.442Z,15.20
2024-04-23T15:53:01.671Z,15.10
2024-04-23T15:55:49.431Z,15.00
2024-04-23T15:58:42.268Z,14.90
2024-04-23T16:01:29.546Z,14.80
2024-04-23T16:04:19.727Z,14.60
2024-04-23T16:07:07.773Z,14.60
2024-04-23T16:09:58.556Z,14.50
2024-04-23T16:12:46.100Z,14.40
2024-04-23T16:15:40.822Z,14.40
2024-04-23T16:18:29.484Z,14.40
2024-04-23T16:21:19.858Z,14.30
2024-04-23T16:24:08.332Z,14.30
2024-04-23T16:27:01.891Z,14.20
2024-04-23T16:29:50.468Z,14.10
2024-04-23T16:32:43.231Z,14.10
2024-04-23T16:35:32.316Z,14.00
2024-04-23T16:38:22.358Z,14.00
2024-04-23T16:41:10.290Z,13.80
2024-04-23T16:44:00.327Z,13.80
2024-04-23T16:46:51.687Z,13.80
2024-04-23T16:49:42.009Z,13.70
2024-04-23T16:52:32.131Z,13.70
2024-04-23T16:55:19.614Z,13.60
2024-04-23T16:58:09.553Z,13.60
2024-04-23T17:00:56.946Z,13.60
2024-04-23T17:03:47.105Z,13.50
2024-04-23T17:06:37.345Z,13.50
2024-04-23T17:09:27.470Z,13.50
2024-04-23T17:12:14.933Z,13.40
2024-04-23T17:15:04.986Z,13.30
2024-04-23T17:17:52.881Z,13.30
2024-04-23T17:20:43.219Z,13.20
2024-04-23T17:23:33.166Z,13.10
2024-04-23T17:26:23.313Z,13.10
2024-04-23T17:29:10.796Z,13.00
2024-04-23T17:32:01.743Z,13.00
2024-04-23T17:34:52.320Z,13.00
2024-04-23T17:37:42.341Z,13.00
2024-04-23T17:40:34.937Z,12.90
2024-04-23T17:43:22.737Z,12.90
2024-04-23T17:46:14.612Z,12.90
2024-04-23T17:49:01.948Z,12.80
2024-04-23T17:51:52.027Z,12.80
2024-04-23T17:54:39.367Z,12.80
2024-04-23T17:57:31.994Z,12.70
2024-04-23T18:00:19.317Z,12.70
2024-04-23T18:03:09.360Z,12.60
2024-04-23T18:05:59.645Z,12.60
2024-04-23T18:08:47.288Z,12.50
2024-04-23T18:11:37.962Z,12.50
2024-04-23T18:14:28.118Z,12.50
2024-04-23T18:17:18.565Z,12.50
2024-04-23T18:20:07.454Z,12.50
2024-04-23T18:22:57.682Z,12.50
2024-04-23T18:25:52.441Z,12.50
2024-04-23T18:28:42.458Z,12.40
2024-04-23T18:31:35.175Z,12.40
2024-04-23T18:34:25.375Z,12.40
2024-04-23T18:37:13.163Z,12.30
2024-04-23T18:40:03.200Z,12.30
2024-04-23T18:42:51.482Z,12.30
2024-04-23T18:45:41.652Z,12.30
2024-04-23T18:48:31.807Z,12.30
2024-04-23T18:51:22.604Z,12.30
2024-04-23T18:54:12.822Z,12.20
2024-04-23T18:57:00.668Z,12.20
2024-04-23T18:59:50.561Z,12.20
2024-04-23T19:02:40.837Z,12.20
2024-04-23T19:05:30.877Z,12.20
2024-04-23T19:08:21.005Z,12.10
2024-04-23T19:11:08.704Z,12.10
2024-04-23T19:14:10.726Z,12.10
2024-04-23T19:17:04.902Z,12.10
2024-04-23T19:19:52.372Z,12.10
2024-04-23T19:22:45.011Z,12.10
2024-04-23T19:25:35.119Z,12.00
2024-04-23T19:28:22.706Z,12.00
2024-04-23T19:31:13.432Z,12.00
2024-04-23T19:34:01.320Z,12.00
2024-04-23T19:36:52.017Z,12.00
2024-04-23T19:39:42.534Z,11.90
2024-04-23T19:42:32.405Z,11.90
2024-04-23T19:45:19.970Z,11.90
2024-04-23T19:48:10.804Z,11.90
2024-04-23T19:50:58.389Z,11.90
2024-04-23T19:53:50.297Z,11.80
2024-04-23T19:56:56.105Z,11.80
2024-04-23T19:59:47.049Z,11.80
2024-04-23T20:02:37.562Z,11.70
2024-04-23T20:05:27.864Z,11.70
2024-04-23T20:08:18.339Z,11.70
2024-04-23T20:11:08.526Z,11.70
2024-04-23T20:14:01.086Z,11.70
2024-04-23T20:16:51.166Z,11.70
2024-04-23T20:19:41.386Z,11.70
2024-04-23T20:22:31.457Z,11.70
2024-04-23T20:25:21.684Z,11.70
2024-04-23T20:28:11.986Z,11.60
2024-04-23T20:31:06.664Z,11.60
2024-04-23T20:33:57.021Z,11.60
2024-04-23T20:36:47.039Z,11.60
2024-04-23T20:39:37.112Z,11.50
2024-04-23T20:42:27.335Z,11.50
2024-04-23T20:45:17.642Z,11.50
2024-04-23T20:48:11.094Z,11.50
2024-04-23T20:51:01.419Z,11.40
2024-04-23T20:53:51.830Z,11.40
2024-04-23T20:56:41.932Z,11.40
2024-04-23T20:59:32.338Z,11.40
2024-04-23T21:02:22.423Z,11.40
2024-04-23T21:05:15.241Z,11.40
2024-04-23T21:08:07.997Z,11.40
2024-04-23T21:10:59.946Z,11.30
2024-04-23T21:13:50.237Z,11.30
2024-04-23T21:16:40.436Z,11.20
2024-04-23T21:19:30.377Z,11.20
2024-04-23T21:22:23.186Z,11.10
2024-04-23T21:25:13.314Z,11.00
2024-04-23T21:28:03.824Z,11.00
2024-04-23T21:30:53.723Z,10.90
2024-04-23T21:33:44.078Z,10.80
2024-04-23T21:36:33.970Z,10.80
2024-04-23T21:39:27.085Z,10.70
2024-04-23T21:42:28.074Z,10.60
2024-04-23T21:45:25.746Z,10.60
2024-04-23T21:48:16.609Z,10.50
2024-04-23T21:51:11.225Z,10.50
2024-04-23T21:54:01.197Z,10.50
2024-04-23T21:56:54.024Z,10.40
2024-04-23T21:59:44.717Z,10.40
2024-04-23T22:02:34.866Z,10.40
2024-04-23T22:05:25.215Z,10.30
2024-04-23T22:08:15.478Z,10.30
2024-04-23T22:11:05.641Z,10.30
2024-04-23T22:13:58.250Z,10.30
2024-04-23T22:16:48.352Z,10.30
2024-04-23T22:19:38.200Z,10.30
2024-04-23T22:22:28.452Z,10.40
2024-04-23T22:25:20.560Z,10.40
2024-04-23T22:28:11.116Z,10.40
2024-04-23T22:31:04.906Z,10.40
2024-04-23T22:33:55.193Z,10.40
2024-04-23T22:36:45.361Z,10.40
2024-04-23T22:39:35.582Z,10.40
2024-04-23T22:42:25.702Z,10.40
2024-04-23T22:45:15.745Z,10.40
2024-04-23T22:48:10.218Z,10.40
2024-04-23T22:51:00.548Z,10.40
2024-04-23T22:53:50.898Z,10.40
2024-04-23T22:56:41.209Z,10.40
2024-04-23T22:59:31.497Z,10.30
2024-04-23T23:02:21.394Z,10.30
2024-04-23T23:05:14.170Z,10.30
2024-04-23T23:08:04.481Z,10.30
2024-04-23T23:10:54.708Z,10.30
2024-04-23T23:13:44.676Z,10.30
2024-04-23T23:16:34.686Z,10.30
2024-04-23T23:19:24.946Z,10.30
2024-04-23T23:22:17.755Z,10.30
2024-04-23T23:25:08.783Z,10.30
2024-04-23T23:27:59.020Z,10.30
2024-04-23T23:30:49.631Z,10.30
2024-04-23T23:33:40.293Z,10.20
2024-04-23T23:36:30.497Z,10.20
2024-04-23T23:39:23.352Z,10.20
2024-04-23T23:42:14.021Z,10.10
2024-04-23T23:45:04.413Z,10.10
2024-04-23T23:47:54.502Z,10.00
2024-04-23T23:50:44.411Z,10.00
2024-04-23T23:53:34.559Z,9.90
2024-04-23T23:56:27.407Z,9.90
2024-04-23T23:59:17.390Z,9.80
